Time;durP1;ratioP1;P1;durP2;ratioP2;P2;SDS_P1;SDS_P2;PMS_P1;PMS_P2;Temp;Humidity;BMP_temperature;BMP_pressure;BME280_temperature;BME280_humidity;BME280_pressure;Samples;Min_cycle;Max_cycle;Signal;HPM_P1;HPM_P2
2020/12/26 00:00:45;;;;;;;10.87;8.90;;;;;20.50;101318.00;;;;2062884;28;20213;-65
2020/12/26 00:01:45;;;;;;;9.50;8.60;;;;;20.50;101312.00;;;;2071345;28;20216;-64
2020/12/26 00:02:46;;;;;;;9.80;8.70;;;;;20.30;101313.00;;;;2080146;28;20210;-65
2020/12/26 00:03:47;;;;;;;9.57;8.27;;;;;20.50;101309.00;;;;2079344;28;20239;-64
2020/12/26 00:04:48;;;;;;;9.87;8.87;;;;;20.50;101311.00;;;;2063183;28;20209;-65
2020/12/26 00:05:49;;;;;;;11.15;8.60;;;;;20.50;101308.00;;;;2056292;28;20497;-65
2020/12/26 00:06:52;;;;;;;10.10;9.00;;;;;20.50;101312.00;;;;2062204;28;20212;-64
2020/12/26 00:07:53;;;;;;;9.65;8.55;;;;;20.40;101309.00;;;;2064914;28;20212;-65
2020/12/26 00:08:53;;;;;;;8.53;7.73;;;;;20.50;101315.00;;;;2069837;28;20220;-64
2020/12/26 00:09:53;;;;;;;9.07;8.10;;;;;20.40;101306.00;;;;2068259;28;20826;-64
2020/12/26 00:10:54;;;;;;;9.20;7.80;;;;;20.50;101305.00;;;;2080094;28;20233;-65
2020/12/26 00:11:55;;;;;;;8.90;8.10;;;;;20.50;101304.00;;;;2071168;28;20228;-65
2020/12/26 00:12:55;;;;;;;9.17;8.17;;;;;20.40;101309.00;;;;2071499;28;20466;-65
2020/12/26 00:13:55;;;;;;;8.40;7.53;;;;;20.40;101310.00;;;;2080203;28;20219;-64
2020/12/26 00:14:56;;;;;;;7.90;7.20;;;;;20.40;101304.00;;;;2071451;28;20263;-64
2020/12/26 00:15:56;;;;;;;8.43;7.60;;;;;20.40;101307.00;;;;2069302;28;20683;-64
2020/12/26 00:16:57;;;;;;;7.90;7.10;;;;;20.40;101310.00;;;;2065426;28;20345;-64
2020/12/26 00:17:57;;;;;;;8.60;7.70;;;;;20.40;101307.00;;;;2071441;28;20708;-64
2020/12/26 00:18:58;;;;;;;8.27;7.47;;;;;20.40;101311.00;;;;2080205;28;20896;-64
2020/12/26 00:19:58;;;;;;;8.00;7.20;;;;;20.40;101306.00;;;;2080194;28;20583;-64
2020/12/26 00:20:59;;;;;;;9.00;7.07;;;;;20.40;101310.00;;;;2077574;28;20683;-64
2020/12/26 00:22:00;;;;;;;7.38;6.63;;;;;20.40;101307.00;;;;2065676;28;20266;-64
2020/12/26 00:23:00;;;;;;;7.17;6.47;;;;;20.40;101306.00;;;;2069033;28;20958;-64
2020/12/26 00:24:00;;;;;;;10.13;7.40;;;;;20.40;101303.00;;;;2065707;28;21185;-64
2020/12/26 00:25:01;;;;;;;8.57;6.90;;;;;20.40;101307.00;;;;2077000;28;20220;-64
2020/12/26 00:26:01;;;;;;;9.07;7.87;;;;;20.40;101300.00;;;;2074649;28;20209;-64
2020/12/26 00:27:02;;;;;;;8.20;6.47;;;;;20.40;101296.00;;;;2079998;28;20208;-64
2020/12/26 00:28:04;;;;;;;8.57;7.37;;;;;20.40;101302.00;;;;2077070;28;20213;-64
2020/12/26 00:29:05;;;;;;;7.57;6.72;;;;;20.40;101304.00;;;;2071358;28;20274;-65
2020/12/26 00:30:06;;;;;;;8.33;6.17;;;;;20.40;101310.00;;;;2066661;28;20269;-64
2020/12/26 00:31:07;;;;;;;7.78;6.97;;;;;20.40;101303.00;;;;2071993;28;20287;-65
2020/12/26 00:32:07;;;;;;;7.40;6.53;;;;;20.40;101310.00;;;;2067713;28;20636;-66
2020/12/26 00:33:07;;;;;;;11.73;6.67;;;;;20.40;101312.00;;;;2061802;28;20352;-65
2020/12/26 00:34:08;;;;;;;8.00;6.80;;;;;20.40;101310.00;;;;2072407;28;20332;-65
2020/12/26 00:35:08;;;;;;;7.43;6.57;;;;;20.30;101310.00;;;;2072553;28;20276;-66
2020/12/26 00:36:08;;;;;;;6.30;5.70;;;;;20.30;101306.00;;;;2075640;28;20666;-66
2020/12/26 00:37:09;;;;;;;6.83;5.90;;;;;20.40;101314.00;;;;2079963;28;20218;-66
2020/12/26 00:38:09;;;;;;;6.57;5.47;;;;;20.30;101313.00;;;;2075951;28;20273;-66
2020/12/26 00:39:09;;;;;;;7.20;5.63;;;;;20.40;101316.00;;;;2066758;28;20366;-65
2020/12/26 00:40:10;;;;;;;9.10;6.90;;;;;20.30;101313.00;;;;2070954;28;20224;-66
2020/12/26 00:41:14;;;;;;;6.43;5.83;;;;;20.30;101311.00;;;;2076639;28;20713;-66
2020/12/26 00:42:14;;;;;;;5.95;5.35;;;;;20.30;101316.00;;;;2066503;28;20707;-66
2020/12/26 00:43:14;;;;;;;6.90;5.80;;;;;20.30;101317.00;;;;2071233;28;20212;-66
2020/12/26 00:44:15;;;;;;;7.20;5.70;;;;;20.30;101315.00;;;;2079950;28;20687;-66
2020/12/26 00:45:15;;;;;;;5.60;5.10;;;;;20.30;101317.00;;;;2075081;28;20240;-66
2020/12/26 00:46:20;;;;;;;6.20;5.60;;;;;20.30;101323.00;;;;2071647;28;20216;-66
2020/12/26 00:47:20;;;;;;;6.60;5.50;;;;;20.30;101313.00;;;;2059862;28;20569;-66
2020/12/26 00:48:20;;;;;;;5.87;5.30;;;;;20.40;101321.00;;;;2058076;28;20259;-66
2020/12/26 00:49:21;;;;;;;6.63;5.87;;;;;20.30;101320.00;;;;2068503;28;20212;-66
2020/12/26 00:50:21;;;;;;;6.43;5.73;;;;;20.30;101323.00;;;;2065248;28;20237;-66
2020/12/26 00:51:21;;;;;;;6.67;5.77;;;;;20.30;101316.00;;;;2076703;28;20219;-66
2020/12/26 00:52:22;;;;;;;6.60;6.00;;;;;20.30;101315.00;;;;2074498;28;20266;-66
2020/12/26 00:53:22;;;;;;;6.60;5.93;;;;;20.30;101324.00;;;;2077448;28;20245;-65
2020/12/26 00:54:22;;;;;;;8.77;6.07;;;;;20.30;101314.00;;;;2065824;28;20212;-66
2020/12/26 00:55:23;;;;;;;6.37;5.60;;;;;20.30;101312.00;;;;2068551;28;20207;-65
2020/12/26 00:56:23;;;;;;;6.00;5.40;;;;;20.20;101306.00;;;;2073314;28;20250;-66
2020/12/26 00:57:23;;;;;;;5.77;5.17;;;;;20.20;101300.00;;;;2077273;28;20219;-66
2020/12/26 00:58:24;;;;;;;6.37;5.50;;;;;20.20;101300.00;;;;2074123;28;20223;-66
2020/12/26 00:59:24;;;;;;;6.47;4.97;;;;;20.20;101310.00;;;;2063086;28;20263;-66
2020/12/26 01:00:24;;;;;;;5.73;5.03;;;;;20.30;101306.00;;;;2068803;28;20219;-66
2020/12/26 01:01:25;;;;;;;5.80;4.90;;;;;20.20;101301.00;;;;2064946;28;20268;-66
2020/12/26 01:02:25;;;;;;;6.10;5.17;;;;;20.20;101292.00;;;;2071442;28;20216;-66
2020/12/26 01:03:27;;;;;;;5.50;5.00;;;;;20.20;101297.00;;;;2062838;28;20240;-66
2020/12/26 01:04:28;;;;;;;5.72;4.57;;;;;20.20;101299.00;;;;2070077;28;20214;-66
2020/12/26 01:05:29;;;;;;;5.20;4.70;;;;;20.20;101296.00;;;;2064801;28;20287;-66
2020/12/26 01:06:29;;;;;;;5.45;4.68;;;;;20.20;101294.00;;;;2063447;28;20217;-66
2020/12/26 01:07:29;;;;;;;5.43;4.93;;;;;20.20;101301.00;;;;2071282;28;20211;-66
2020/12/26 01:08:29;;;;;;;5.60;5.10;;;;;20.10;101296.00;;;;2078803;28;20219;-66
2020/12/26 01:09:30;;;;;;;5.67;5.10;;;;;20.20;101304.00;;;;2073731;28;20348;-66
2020/12/26 01:10:30;;;;;;;4.97;4.47;;;;;20.20;101300.00;;;;2071279;28;20303;-66
2020/12/26 01:11:30;;;;;;;5.30;4.77;;;;;20.20;101304.00;;;;2071074;28;20221;-66
2020/12/26 01:12:31;;;;;;;5.90;5.20;;;;;20.10;101297.00;;;;2064351;28;20206;-66
2020/12/26 01:13:31;;;;;;;5.60;4.70;;;;;20.20;101304.00;;;;2078654;28;20614;-66
2020/12/26 01:14:31;;;;;;;4.57;4.17;;;;;20.10;101301.00;;;;2071123;28;20206;-66
2020/12/26 01:15:32;;;;;;;5.40;4.80;;;;;20.20;101308.00;;;;2064269;28;20204;-66
2020/12/26 01:16:32;;;;;;;5.00;4.50;;;;;20.20;101313.00;;;;2078798;28;20208;-66
2020/12/26 01:17:32;;;;;;;6.20;4.70;;;;;20.20;101315.00;;;;2072839;28;20217;-66
2020/12/26 01:18:34;;;;;;;5.40;4.90;;;;;20.20;101315.00;;;;2078563;28;20200;-66
2020/12/26 01:19:34;;;;;;;5.18;4.60;;;;;20.20;101313.00;;;;2072522;28;20200;-66
2020/12/26 01:20:35;;;;;;;4.93;4.20;;;;;20.10;101320.00;;;;2079068;28;20710;-66
2020/12/26 01:21:35;;;;;;;5.07;4.53;;;;;20.20;101317.00;;;;2063588;28;20295;-66
2020/12/26 01:22:35;;;;;;;5.87;4.80;;;;;20.20;101317.00;;;;2070291;28;20216;-66
2020/12/26 01:23:36;;;;;;;5.13;4.20;;;;;20.20;101315.00;;;;2063875;28;20217;-66
2020/12/26 01:24:36;;;;;;;4.63;4.00;;;;;20.10;101317.00;;;;2079187;28;20215;-66
2020/12/26 01:25:36;;;;;;;4.90;4.17;;;;;20.20;101327.00;;;;2072462;28;20212;-66
2020/12/26 01:26:37;;;;;;;5.83;4.20;;;;;20.10;101322.00;;;;2079503;28;20202;-66
2020/12/26 01:27:37;;;;;;;4.27;3.93;;;;;20.10;101320.00;;;;2080133;28;20207;-66
2020/12/26 01:28:37;;;;;;;6.30;4.73;;;;;20.20;101321.00;;;;2072286;28;20208;-66
2020/12/26 01:29:38;;;;;;;5.37;4.07;;;;;20.10;101320.00;;;;2079472;28;20295;-66
2020/12/26 01:30:38;;;;;;;4.77;4.30;;;;;20.20;101315.00;;;;2072130;28;20200;-66
2020/12/26 01:31:38;;;;;;;5.10;4.00;;;;;20.20;101313.00;;;;2078554;28;20215;-66
2020/12/26 01:32:39;;;;;;;4.77;4.30;;;;;20.10;101318.00;;;;2063287;28;20350;-66
2020/12/26 01:33:39;;;;;;;4.93;4.03;;;;;20.20;101321.00;;;;2070831;28;20735;-65
2020/12/26 01:34:40;;;;;;;4.50;4.10;;;;;20.10;101309.00;;;;2063211;28;20696;-65
2020/12/26 01:35:40;;;;;;;5.00;3.97;;;;;20.10;101326.00;;;;2070968;28;20754;-66
2020/12/26 01:36:40;;;;;;;5.33;4.23;;;;;20.10;101311.00;;;;2079859;28;20912;-66
2020/12/26 01:37:41;;;;;;;4.50;3.60;;;;;20.10;101314.00;;;;2071051;28;20836;-66
2020/12/26 01:38:41;;;;;;;5.00;4.00;;;;;20.10;101319.00;;;;2071013;28;20715;-66
2020/12/26 01:39:41;;;;;;;5.33;4.20;;;;;20.10;101322.00;;;;2072818;28;20239;-66
2020/12/26 01:40:49;;;;;;;4.97;4.10;;;;;20.10;101320.00;;;;2078444;28;20215;-66
2020/12/26 01:41:52;;;;;;;4.68;3.65;;;;;20.10;101319.00;;;;2049870;28;20594;-66
2020/12/26 01:42:53;;;;;;;5.13;4.30;;;;;20.10;101319.00;;;;2048773;28;20268;-66
2020/12/26 01:43:57;;;;;;;4.10;3.70;;;;;20.10;101322.00;;;;2068636;28;20209;-66
2020/12/26 01:44:57;;;;;;;4.32;3.92;;;;;20.10;101324.00;;;;2068231;28;20250;-66
2020/12/26 01:45:58;;;;;;;4.77;3.37;;;;;20.00;101326.00;;;;2065011;28;20218;-66
2020/12/26 01:46:58;;;;;;;3.83;3.53;;;;;20.00;101327.00;;;;2076699;28;20257;-66
2020/12/26 01:47:58;;;;;;;4.93;3.83;;;;;20.00;101321.00;;;;2073616;28;20288;-66
2020/12/26 01:48:59;;;;;;;4.13;3.77;;;;;19.80;101326.00;;;;2070908;28;20699;-66
2020/12/26 01:50:00;;;;;;;4.30;3.30;;;;;20.00;101320.00;;;;2070908;28;20734;-66
2020/12/26 01:51:00;;;;;;;3.53;3.23;;;;;20.00;101295.00;;;;2070662;28;20669;-66
2020/12/26 01:52:01;;;;;;;3.80;3.50;;;;;20.00;101322.00;;;;2062687;28;20231;-66
2020/12/26 01:53:01;;;;;;;3.93;3.53;;;;;20.00;101328.00;;;;2060157;28;20249;-66
2020/12/26 01:54:02;;;;;;;4.20;3.70;;;;;20.00;101324.00;;;;2054749;28;20610;-66
2020/12/26 01:55:02;;;;;;;3.93;3.40;;;;;20.00;101307.00;;;;2057472;28;20704;-66
2020/12/26 01:56:02;;;;;;;4.07;3.57;;;;;20.00;101321.00;;;;2060130;28;20303;-66
2020/12/26 01:57:03;;;;;;;3.77;3.40;;;;;20.10;101326.00;;;;2054710;28;20769;-66
2020/12/26 01:58:03;;;;;;;3.77;3.37;;;;;20.10;101323.00;;;;2057355;28;20228;-66
2020/12/26 01:59:04;;;;;;;4.87;3.73;;;;;20.00;101325.00;;;;2052548;28;20462;-66
2020/12/26 02:00:05;;;;;;;4.07;3.67;;;;;20.00;101298.00;;;;2062599;28;20272;-66
2020/12/26 02:01:05;;;;;;;4.83;3.70;;;;;20.00;101314.00;;;;2053908;28;20233;-66
2020/12/26 02:02:08;;;;;;;4.30;3.90;;;;;20.00;101316.00;;;;2058126;28;20216;-65
2020/12/26 02:03:09;;;;;;;4.18;3.50;;;;;20.00;101317.00;;;;2068059;28;20228;-66
2020/12/26 02:04:10;;;;;;;3.60;3.30;;;;;20.00;101319.00;;;;2067937;28;20271;-66
2020/12/26 02:05:11;;;;;;;3.60;3.30;;;;;20.00;101321.00;;;;2059999;28;20224;-66
2020/12/26 02:06:11;;;;;;;3.90;3.40;;;;;20.00;101324.00;;;;2059933;28;20267;-66
2020/12/26 02:07:11;;;;;;;4.13;3.73;;;;;20.00;101319.00;;;;2061618;28;20220;-66
2020/12/26 02:08:12;;;;;;;3.97;3.60;;;;;20.00;101326.00;;;;2067863;28;20212;-66
2020/12/26 02:09:12;;;;;;;4.73;3.27;;;;;20.00;101323.00;;;;2059960;28;20292;-66
2020/12/26 02:10:13;;;;;;;3.53;3.20;;;;;19.90;101319.00;;;;2052365;28;20217;-66
2020/12/26 02:11:14;;;;;;;4.18;3.60;;;;;20.00;101316.00;;;;2059343;28;20233;-66
2020/12/26 02:12:14;;;;;;;4.77;3.80;;;;;20.00;101323.00;;;;2056987;28;20272;-66
2020/12/26 02:13:14;;;;;;;3.70;3.30;;;;;20.00;101321.00;;;;2063698;28;20220;-66
2020/12/26 02:14:15;;;;;;;3.40;2.83;;;;;20.00;101324.00;;;;2068551;28;20216;-66
2020/12/26 02:15:15;;;;;;;3.90;3.30;;;;;20.00;101320.00;;;;2071695;28;20223;-66
2020/12/26 02:16:17;;;;;;;3.60;3.30;;;;;20.00;101330.00;;;;2072753;28;20242;-66
2020/12/26 02:17:27;;;;;;;4.43;2.97;;;;;19.90;101317.00;;;;2078753;28;20342;-66
2020/12/26 02:18:27;;;;;;;4.10;3.28;;;;;20.00;101316.00;;;;2071072;28;20221;-66
2020/12/26 02:19:27;;;;;;;3.97;3.50;;;;;19.90;101321.00;;;;2071770;28;20722;-66
2020/12/26 02:20:28;;;;;;;3.60;2.87;;;;;19.90;101320.00;;;;2062489;28;20737;-66
2020/12/26 02:21:28;;;;;;;4.23;3.27;;;;;19.90;101319.00;;;;2055482;28;20620;-66
2020/12/26 02:22:29;;;;;;;4.47;3.10;;;;;19.90;101323.00;;;;2052984;28;20215;-66
2020/12/26 02:23:29;;;;;;;3.83;3.43;;;;;19.90;101321.00;;;;2079171;28;20581;-66
2020/12/26 02:24:30;;;;;;;4.00;3.37;;;;;19.90;101322.00;;;;2072298;28;20215;-66
2020/12/26 02:25:30;;;;;;;3.53;3.23;;;;;19.90;101317.00;;;;2065762;28;20215;-66
2020/12/26 02:26:30;;;;;;;3.50;3.20;;;;;19.90;101318.00;;;;2079022;28;20213;-66
2020/12/26 02:27:31;;;;;;;4.43;3.90;;;;;19.90;101322.00;;;;2055913;28;20216;-66
2020/12/26 02:28:31;;;;;;;3.97;3.57;;;;;19.90;101322.00;;;;2070487;28;20204;-66
2020/12/26 02:29:31;;;;;;;4.13;3.57;;;;;19.90;101319.00;;;;2080322;28;20281;-66
2020/12/26 02:30:31;;;;;;;3.50;3.20;;;;;19.90;101324.00;;;;2064972;28;20214;-66
2020/12/26 02:31:33;;;;;;;3.53;2.80;;;;;19.90;101325.00;;;;2063744;28;20212;-66
2020/12/26 02:32:33;;;;;;;4.00;3.00;;;;;19.90;101315.00;;;;2070790;28;20271;-65
2020/12/26 02:33:34;;;;;;;4.23;3.70;;;;;19.90;101313.00;;;;2063679;28;20777;-66
2020/12/26 02:34:35;;;;;;;6.03;3.30;;;;;19.90;101307.00;;;;2069539;28;20614;-66
2020/12/26 02:35:35;;;;;;;4.60;3.80;;;;;19.90;101314.00;;;;2063887;28;20228;-66
2020/12/26 02:36:36;;;;;;;4.37;3.40;;;;;19.90;101322.00;;;;2079575;28;20220;-65
2020/12/26 02:37:36;;;;;;;3.77;3.30;;;;;19.80;101311.00;;;;2063268;28;20217;-66
2020/12/26 02:38:36;;;;;;;4.23;3.27;;;;;19.90;101307.00;;;;2063407;28;20213;-66
2020/12/26 02:39:37;;;;;;;5.73;3.63;;;;;19.90;101318.00;;;;2072929;28;20215;-66
2020/12/26 02:40:37;;;;;;;3.77;3.37;;;;;19.90;101311.00;;;;2071889;28;20215;-66
2020/12/26 02:41:38;;;;;;;5.77;3.43;;;;;19.90;101312.00;;;;2079982;28;20269;-66
2020/12/26 02:42:38;;;;;;;4.03;3.17;;;;;19.90;101309.00;;;;2071808;28;20224;-66
2020/12/26 02:43:38;;;;;;;3.57;2.90;;;;;19.90;101312.00;;;;2071813;28;20242;-66
2020/12/26 02:44:39;;;;;;;4.93;3.23;;;;;19.80;101310.00;;;;2064194;28;20221;-66
2020/12/26 02:45:39;;;;;;;4.20;3.20;;;;;19.90;101314.00;;;;2052270;28;20680;-66
2020/12/26 02:46:39;;;;;;;4.30;3.37;;;;;19.80;101304.00;;;;2063429;28;20869;-66
2020/12/26 02:47:40;;;;;;;4.60;3.43;;;;;19.90;101310.00;;;;2075659;28;20603;-66
2020/12/26 02:48:40;;;;;;;3.40;3.03;;;;;19.90;101312.00;;;;2073903;28;20240;-66
2020/12/26 02:49:40;;;;;;;4.03;3.63;;;;;19.90;101308.00;;;;2070069;28;20249;-66
2020/12/26 02:50:41;;;;;;;3.53;3.20;;;;;19.90;101306.00;;;;2065309;28;20219;-66
2020/12/26 02:51:41;;;;;;;3.73;3.00;;;;;19.90;101310.00;;;;2064001;28;20235;-66
2020/12/26 02:52:42;;;;;;;3.70;3.17;;;;;19.80;101307.00;;;;2061211;28;20495;-66
2020/12/26 02:53:42;;;;;;;4.63;3.80;;;;;19.80;101315.00;;;;2063686;28;20224;-66
2020/12/26 02:54:43;;;;;;;6.23;3.30;;;;;19.80;101307.00;;;;2071064;28;20212;-66
2020/12/26 02:55:43;;;;;;;3.80;3.50;;;;;19.80;101306.00;;;;2073363;28;20234;-66
2020/12/26 02:56:43;;;;;;;3.77;3.30;;;;;19.80;101311.00;;;;2071742;28;20258;-66
2020/12/26 02:57:44;;;;;;;3.50;3.20;;;;;19.80;101311.00;;;;2071620;28;20223;-66
2020/12/26 02:58:45;;;;;;;4.17;3.20;;;;;19.80;101308.00;;;;2072420;28;20240;-66
2020/12/26 02:59:45;;;;;;;3.85;3.50;;;;;19.80;101313.00;;;;2073831;28;20239;-66
2020/12/26 03:00:45;;;;;;;3.90;3.50;;;;;19.80;101312.00;;;;2071541;28;20212;-66
2020/12/26 03:01:46;;;;;;;4.40;3.77;;;;;19.80;101304.00;;;;2063779;28;20225;-66
2020/12/26 03:02:46;;;;;;;4.67;3.77;;;;;19.80;101304.00;;;;2060605;28;20708;-66
2020/12/26 03:03:46;;;;;;;3.87;3.50;;;;;19.80;101290.00;;;;2056496;28;20708;-66
2020/12/26 03:04:47;;;;;;;4.43;3.53;;;;;19.80;101291.00;;;;2072422;28;20567;-66
2020/12/26 03:05:47;;;;;;;4.20;3.73;;;;;19.80;101301.00;;;;2079770;28;20611;-65
2020/12/26 03:06:47;;;;;;;3.27;3.00;;;;;19.80;101304.00;;;;2072794;28;20215;-66
2020/12/26 03:07:48;;;;;;;3.73;3.30;;;;;19.80;101306.00;;;;2076962;28;20236;-66
2020/12/26 03:08:48;;;;;;;3.53;3.23;;;;;19.80;101294.00;;;;2072118;28;20243;-66
2020/12/26 03:09:48;;;;;;;3.87;3.57;;;;;19.80;101301.00;;;;2072393;28;20222;-66
2020/12/26 03:10:49;;;;;;;4.40;3.23;;;;;19.80;101289.00;;;;2076245;28;20208;-66
2020/12/26 03:11:49;;;;;;;4.80;3.67;;;;;19.80;101291.00;;;;2078533;28;20266;-66
2020/12/26 03:12:49;;;;;;;3.87;3.43;;;;;19.80;101293.00;;;;2072914;28;20220;-66
2020/12/26 03:13:50;;;;;;;4.17;3.80;;;;;19.70;101287.00;;;;2078276;28;20224;-66
2020/12/26 03:14:50;;;;;;;4.93;3.57;;;;;19.80;101288.00;;;;2074508;28;20285;-66
2020/12/26 03:15:50;;;;;;;4.20;3.80;;;;;19.80;101284.00;;;;2079502;28;20222;-67
2020/12/26 03:16:51;;;;;;;3.40;3.10;;;;;19.70;101286.00;;;;2056590;28;20692;-66
2020/12/26 03:17:51;;;;;;;4.37;3.00;;;;;19.70;101278.00;;;;2060577;28;20580;-66
2020/12/26 03:18:51;;;;;;;4.37;3.30;;;;;19.70;101280.00;;;;2073109;28;20278;-66
2020/12/26 03:19:52;;;;;;;4.30;3.60;;;;;19.80;101280.00;;;;2071127;28;20258;-66
2020/12/26 03:20:52;;;;;;;4.13;3.63;;;;;19.70;101284.00;;;;2064357;28;20299;-66
2020/12/26 03:21:52;;;;;;;3.87;3.57;;;;;19.70;101291.00;;;;2078257;28;20249;-65
2020/12/26 03:22:53;;;;;;;4.20;3.50;;;;;19.70;101290.00;;;;2064136;28;20849;-66
2020/12/26 03:23:53;;;;;;;3.30;2.97;;;;;19.70;101282.00;;;;2069589;28;20702;-66
2020/12/26 03:24:54;;;;;;;3.63;3.33;;;;;19.70;101264.00;;;;2073136;28;20235;-66
2020/12/26 03:25:54;;;;;;;3.40;3.10;;;;;19.70;101277.00;;;;2069371;28;20208;-66
2020/12/26 03:26:54;;;;;;;3.50;3.17;;;;;19.70;101285.00;;;;2056983;28;20518;-66
2020/12/26 03:27:55;;;;;;;3.43;3.13;;;;;19.70;101286.00;;;;2068066;28;20406;-66
2020/12/26 03:28:55;;;;;;;4.53;4.13;;;;;19.70;101283.00;;;;2073328;28;20236;-66
2020/12/26 03:29:55;;;;;;;4.87;3.60;;;;;19.70;101279.00;;;;2079861;28;20238;-66
2020/12/26 03:30:56;;;;;;;3.77;3.47;;;;;19.70;101284.00;;;;2076711;28;20203;-66
2020/12/26 03:31:56;;;;;;;3.70;3.40;;;;;19.70;101280.00;;;;2064922;28;20226;-66
2020/12/26 03:32:56;;;;;;;3.57;3.27;;;;;19.70;101276.00;;;;2066787;28;20288;-66
2020/12/26 03:33:57;;;;;;;4.30;3.63;;;;;19.70;101274.00;;;;2071760;28;20213;-66
2020/12/26 03:34:57;;;;;;;3.40;2.97;;;;;19.70;101278.00;;;;2073437;28;20212;-66
2020/12/26 03:35:57;;;;;;;3.83;3.40;;;;;19.70;101276.00;;;;2077934;28;20232;-66
2020/12/26 03:36:58;;;;;;;3.93;3.53;;;;;19.70;101262.00;;;;2074019;28;20224;-66
2020/12/26 03:37:58;;;;;;;3.30;2.97;;;;;19.70;101276.00;;;;2075379;28;20210;-66
2020/12/26 03:38:58;;;;;;;4.77;3.20;;;;;19.70;101266.00;;;;2065045;28;20235;-66
2020/12/26 03:39:59;;;;;;;5.03;3.33;;;;;19.70;101262.00;;;;2071274;28;20425;-66
2020/12/26 03:41:00;;;;;;;3.40;3.10;;;;;19.70;101271.00;;;;2077843;28;20215;-66
2020/12/26 03:42:00;;;;;;;3.85;3.17;;;;;19.70;101274.00;;;;2071889;28;20638;-66
2020/12/26 03:43:00;;;;;;;4.30;3.27;;;;;19.70;101267.00;;;;2071104;28;20283;-66
2020/12/26 03:44:01;;;;;;;3.20;2.90;;;;;19.70;101270.00;;;;2077689;28;20210;-66
2020/12/26 03:45:02;;;;;;;4.90;3.43;;;;;19.60;101268.00;;;;2074432;28;20226;-66
2020/12/26 03:46:02;;;;;;;4.15;3.53;;;;;19.70;101258.00;;;;2068663;28;20228;-66
2020/12/26 03:47:07;;;;;;;4.23;3.57;;;;;19.70;101261.00;;;;2066256;28;20251;-66
2020/12/26 03:48:08;;;;;;;4.10;3.40;;;;;19.70;101268.00;;;;2063253;28;20928;-66
2020/12/26 03:49:08;;;;;;;5.50;3.30;;;;;19.70;101268.00;;;;2063565;28;20220;-66
2020/12/26 03:50:08;;;;;;;3.50;3.20;;;;;19.70;101265.00;;;;2075476;28;20243;-66
2020/12/26 03:51:09;;;;;;;4.30;3.40;;;;;19.70;101266.00;;;;2080223;28;20216;-66
2020/12/26 03:52:09;;;;;;;3.90;2.93;;;;;19.70;101256.00;;;;2067792;28;20229;-66
2020/12/26 03:53:09;;;;;;;3.40;3.10;;;;;19.70;101269.00;;;;2066954;28;20294;-66
2020/12/26 03:54:10;;;;;;;5.57;3.40;;;;;19.70;101263.00;;;;2059494;28;20720;-66
2020/12/26 03:55:10;;;;;;;2.97;2.77;;;;;19.70;101251.00;;;;2068346;28;20688;-66
2020/12/26 03:56:15;;;;;;;3.50;3.10;;;;;19.70;101254.00;;;;2076282;28;20582;-66
2020/12/26 03:57:16;;;;;;;3.00;2.70;;;;;19.60;101255.00;;;;2063143;28;20758;-66
2020/12/26 03:58:16;;;;;;;3.43;2.80;;;;;19.70;101254.00;;;;2052092;28;20227;-67
2020/12/26 03:59:16;;;;;;;3.37;3.07;;;;;19.70;101247.00;;;;2071251;28;20223;-66
2020/12/26 04:00:17;;;;;;;3.93;3.03;;;;;19.50;101257.00;;;;2068007;28;20223;-66
2020/12/26 04:01:17;;;;;;;4.97;3.03;;;;;19.60;101254.00;;;;2066563;28;20228;-66
2020/12/26 04:02:17;;;;;;;3.90;3.33;;;;;19.60;101250.00;;;;2076536;28;20304;-66
2020/12/26 04:03:17;;;;;;;3.13;2.93;;;;;19.60;101252.00;;;;2080348;28;20215;-66
2020/12/26 04:04:18;;;;;;;3.90;3.00;;;;;19.60;101254.00;;;;2075454;28;20216;-66
2020/12/26 04:05:18;;;;;;;3.57;2.97;;;;;19.60;101252.00;;;;2076668;28;20247;-65
2020/12/26 04:06:18;;;;;;;4.03;3.17;;;;;19.60;101223.00;;;;2075454;28;20701;-66
2020/12/26 04:07:19;;;;;;;3.27;2.90;;;;;19.60;101251.00;;;;2072173;28;20219;-66
2020/12/26 04:08:19;;;;;;;3.67;2.50;;;;;19.60;101245.00;;;;2072417;28;20223;-66
2020/12/26 04:09:19;;;;;;;3.00;2.50;;;;;19.60;101246.00;;;;2077301;28;20226;-66
2020/12/26 04:10:20;;;;;;;4.67;3.30;;;;;19.60;101255.00;;;;2074322;28;20834;-66
2020/12/26 04:11:20;;;;;;;3.40;2.87;;;;;19.60;101247.00;;;;2077378;28;20220;-66
2020/12/26 04:12:20;;;;;;;3.87;3.53;;;;;19.60;101247.00;;;;2066215;28;20281;-66
2020/12/26 04:13:21;;;;;;;3.67;3.33;;;;;19.60;101250.00;;;;2067818;28;20306;-66
2020/12/26 04:14:21;;;;;;;3.03;2.83;;;;;19.60;101248.00;;;;2074790;28;20215;-66
2020/12/26 04:15:21;;;;;;;4.30;2.63;;;;;19.60;101248.00;;;;2068565;28;20215;-66
2020/12/26 04:16:22;;;;;;;4.20;3.17;;;;;19.60;101249.00;;;;2071398;28;20211;-66
2020/12/26 04:17:23;;;;;;;3.93;3.00;;;;;19.60;101253.00;;;;2078162;28;20215;-66
2020/12/26 04:18:23;;;;;;;3.50;3.20;;;;;19.60;101254.00;;;;2074297;28;20211;-65
2020/12/26 04:19:24;;;;;;;2.90;2.70;;;;;19.60;101249.00;;;;2077786;28;20218;-66
2020/12/26 04:20:24;;;;;;;2.90;2.60;;;;;19.60;101244.00;;;;2066883;28;20235;-65
2020/12/26 04:21:25;;;;;;;3.53;2.87;;;;;19.60;101247.00;;;;2069010;28;20220;-66
2020/12/26 04:22:26;;;;;;;4.40;2.80;;;;;19.60;101244.00;;;;2070968;28;20216;-66
2020/12/26 04:23:26;;;;;;;3.20;2.90;;;;;19.60;101242.00;;;;2071429;28;20856;-66
2020/12/26 04:24:27;;;;;;;4.70;3.17;;;;;19.60;101249.00;;;;2079958;28;20574;-66
2020/12/26 04:25:27;;;;;;;3.90;2.87;;;;;19.60;101242.00;;;;2073472;28;20654;-66
2020/12/26 04:26:27;;;;;;;3.03;2.70;;;;;19.60;101240.00;;;;2063431;28;20672;-66
2020/12/26 04:27:28;;;;;;;3.53;2.83;;;;;19.60;101232.00;;;;2069590;28;20776;-66
2020/12/26 04:28:28;;;;;;;3.20;2.80;;;;;19.60;101229.00;;;;2065193;28;20706;-66
2020/12/26 04:29:28;;;;;;;3.63;3.17;;;;;19.60;101230.00;;;;2069527;28;20945;-66
2020/12/26 04:30:29;;;;;;;3.40;3.10;;;;;19.60;101229.00;;;;2065022;28;20751;-66
2020/12/26 04:31:29;;;;;;;3.07;2.77;;;;;19.60;101235.00;;;;2061354;28;20222;-66
2020/12/26 04:32:29;;;;;;;3.90;3.07;;;;;19.60;101231.00;;;;2071145;28;20211;-66
2020/12/26 04:33:30;;;;;;;4.93;3.50;;;;;19.60;101224.00;;;;2078392;28;20247;-66
2020/12/26 04:34:30;;;;;;;3.13;2.73;;;;;19.60;101232.00;;;;2064634;28;21035;-66
2020/12/26 04:35:30;;;;;;;3.50;3.10;;;;;19.50;101233.00;;;;2069707;28;20242;-66
2020/12/26 04:36:31;;;;;;;4.00;3.20;;;;;19.50;101232.00;;;;2080032;28;20204;-66
2020/12/26 04:37:31;;;;;;;3.80;2.83;;;;;19.50;101224.00;;;;2079911;28;20210;-66
2020/12/26 04:38:32;;;;;;;3.43;2.87;;;;;19.60;101227.00;;;;2073220;28;20269;-66
2020/12/26 04:39:32;;;;;;;3.60;3.27;;;;;19.50;101222.00;;;;2063411;28;20710;-66
2020/12/26 04:40:33;;;;;;;3.47;2.70;;;;;19.50;101216.00;;;;2061805;28;20459;-66
2020/12/26 04:41:33;;;;;;;3.03;2.83;;;;;19.50;101220.00;;;;2067342;28;20225;-66
2020/12/26 04:42:34;;;;;;;4.20;3.40;;;;;19.50;101221.00;;;;2056094;28;20216;-66
2020/12/26 04:43:34;;;;;;;3.10;2.83;;;;;19.50;101219.00;;;;2062229;28;20207;-66
2020/12/26 04:44:34;;;;;;;3.27;2.87;;;;;19.50;101224.00;;;;2063190;28;20255;-66
2020/12/26 04:45:35;;;;;;;3.67;3.23;;;;;19.50;101224.00;;;;2070339;28;20245;-66
2020/12/26 04:46:36;;;;;;;3.27;2.97;;;;;19.50;101222.00;;;;2063977;28;20224;-66
2020/12/26 04:47:40;;;;;;;3.00;2.80;;;;;19.50;101222.00;;;;2064985;28;20226;-66
2020/12/26 04:48:50;;;;;;;5.47;3.30;;;;;19.50;101220.00;;;;2071275;28;20633;-66
2020/12/26 04:49:50;;;;;;;5.38;3.35;;;;;19.50;101213.00;;;;2063076;28;20221;-66
2020/12/26 04:51:01;;;;;;;4.03;3.63;;;;;19.50;101220.00;;;;2055566;28;20224;-66
2020/12/26 04:52:02;;;;;;;5.85;3.85;;;;;19.50;101218.00;;;;2064150;28;20253;-66
2020/12/26 04:53:03;;;;;;;3.65;3.13;;;;;19.50;101212.00;;;;2064265;28;20251;-66
2020/12/26 04:54:26;;;;;;;4.00;3.60;;;;;19.50;101211.00;;;;2068224;28;20241;-66
2020/12/26 04:55:28;;;;;;;5.38;3.60;;;;;19.50;101208.00;;;;2071470;28;20215;-66
2020/12/26 04:56:28;;;;;;;4.15;3.75;;;;;19.50;101209.00;;;;2080004;28;20576;-66
2020/12/26 04:57:35;;;;;;;3.57;3.23;;;;;19.40;101200.00;;;;2048540;28;20217;-66
2020/12/26 04:58:35;;;;;;;3.88;3.20;;;;;19.50;101205.00;;;;2049357;28;20707;-66
2020/12/26 04:59:35;;;;;;;3.87;3.43;;;;;19.50;101197.00;;;;2070374;28;20246;-66
2020/12/26 05:00:37;;;;;;;3.30;3.00;;;;;19.50;101207.00;;;;2071142;28;20227;-66